Time;durP1;ratioP1;P1;durP2;ratioP2;P2;SDS_P1;SDS_P2;PMS_P1;PMS_P2;Temp;Humidity;BMP_temperature;BMP_pressure;BME280_temperature;BME280_humidity;BME280_pressure;Samples;Min_cycle;Max_cycle;Signal;HPM_P1;HPM_P2
2022/05/13 00:00:32;;;;;;;;;2.00;2.00;;;;;16.55;49.44;102030.34;4993509;28;49754;-69
2022/05/13 00:02:58;;;;;;;;;1.00;1.00;;;;;16.52;49.51;102031.19;4994107;28;49757;-69
2022/05/13 00:05:24;;;;;;;;;1.00;1.00;;;;;16.51;49.26;102026.75;4993935;28;49534;-69
2022/05/13 00:07:50;;;;;;;;;1.50;1.50;;;;;16.51;49.54;102029.41;4993723;28;51448;-69
2022/05/13 00:10:15;;;;;;;;;2.00;1.50;;;;;16.38;50.01;102011.50;4993843;28;49801;-69
2022/05/13 00:12:41;;;;;;;;;1.50;1.25;;;;;16.49;49.94;102022.28;4993873;28;49690;-69
2022/05/13 00:15:15;;;;;;;;;2.00;2.00;;;;;16.47;50.11;102027.56;4993957;28;49971;-69
2022/05/13 00:17:40;;;;;;;;;2.00;2.00;;;;;16.46;50.11;102023.13;4992115;28;50632;-69
2022/05/13 00:20:07;;;;;;;;;2.75;1.00;;;;;16.44;50.23;102034.56;4992915;28;49700;-67
2022/05/13 00:22:33;;;;;;;;;1.25;1.25;;;;;16.30;50.20;102014.00;4993153;28;49710;-69
2022/05/13 00:24:58;;;;;;;;;2.00;2.00;;;;;16.02;50.07;101990.56;4993649;28;50268;-70
2022/05/13 00:27:24;;;;;;;;;4.75;2.25;;;;;16.23;50.06;102013.91;4993286;28;50499;-68
2022/05/13 00:29:49;;;;;;;;;3.75;1.00;;;;;16.26;50.57;102030.72;4993679;28;49726;-69
2022/05/13 00:32:16;;;;;;;;;1.00;0.75;;;;;16.21;50.71;102035.06;4993490;28;49791;-67
2022/05/13 00:34:41;;;;;;;;;0.25;0.25;;;;;16.01;50.46;102000.25;4993672;28;49819;-68
2022/05/13 00:37:07;;;;;;;;;1.25;1.00;;;;;16.17;50.66;102019.09;4993423;28;50401;-68
2022/05/13 00:39:32;;;;;;;;;3.00;2.00;;;;;16.17;50.77;102025.28;4993331;28;49621;-68
2022/05/13 00:42:12;;;;;;;;;1.50;1.50;;;;;16.15;51.30;102026.13;4993308;28;49511;-68
2022/05/13 00:44:37;;;;;;;;;3.00;3.00;;;;;16.09;50.84;102010.09;4993575;28;49799;-68
2022/05/13 00:47:04;;;;;;;;;2.00;1.25;;;;;16.12;50.53;102020.78;4991471;28;50413;-68
2022/05/13 00:49:31;;;;;;;;;1.50;1.00;;;;;16.06;50.64;102020.66;4993212;28;49940;-69
2022/05/13 00:51:59;;;;;;;;;2.25;1.75;;;;;16.03;50.64;102021.50;4993231;28;49745;-68
2022/05/13 00:54:25;;;;;;;;;2.25;1.25;;;;;16.03;50.96;102025.03;4993082;28;50353;-69
2022/05/13 00:56:50;;;;;;;;;2.00;2.00;;;;;15.95;50.55;102021.34;4992978;28;50747;-68
2022/05/13 00:59:22;;;;;;;;;1.00;1.00;;;;;15.83;50.53;102005.22;4992958;28;49781;-67
2022/05/13 01:01:48;;;;;;;;;1.00;0.50;;;;;15.83;50.82;102014.94;4993255;28;49651;-68
2022/05/13 01:04:17;;;;;;;;;3.50;1.00;;;;;15.89;50.50;102028.28;4991734;28;49780;-70
2022/05/13 01:06:49;;;;;;;;;2.00;2.00;;;;;15.87;50.81;102033.53;4992738;28;50393;-69
2022/05/13 01:09:15;;;;;;;;;1.00;1.00;;;;;15.87;51.04;102033.53;4992998;28;49858;-67
2022/05/13 01:11:43;;;;;;;;;1.00;1.00;;;;;15.58;51.00;101980.00;4993037;28;49844;-69
2022/05/13 01:14:15;;;;;;;;;2.00;2.00;;;;;15.83;51.06;102018.47;4993357;28;49706;-69
2022/05/13 01:19:24;;;;;;;;;2.00;1.00;;;;;15.81;51.17;102030.75;4992513;28;49875;-69
2022/05/13 01:21:50;;;;;;;;;1.25;1.25;;;;;15.79;51.27;102024.56;4993136;28;49774;-69
2022/05/13 01:24:20;;;;;;;;;1.50;0.25;;;;;15.79;51.37;102031.59;4993088;28;49871;-70
2022/05/13 01:26:45;;;;;;;;;3.00;1.00;;;;;15.61;51.59;102011.84;4986512;28;49606;-70
2022/05/13 01:29:11;;;;;;;;;0.00;0.00;;;;;15.72;51.66;102030.59;4992619;28;49785;-67
2022/05/13 01:31:39;;;;;;;;;2.00;1.00;;;;;15.68;51.55;102027.00;4993708;28;49799;-67
2022/05/13 01:34:08;;;;;;;;;2.75;1.00;;;;;15.68;51.86;102034.03;4996312;28;49612;-67
2022/05/13 01:36:34;;;;;;;;;1.75;1.75;;;;;15.63;52.24;102035.69;4996046;28;49802;-67
2022/05/13 01:39:00;;;;;;;;;3.00;3.00;;;;;15.17;52.27;101961.53;4995998;28;49795;-69
2022/05/13 01:41:26;;;;;;;;;1.50;1.50;;;;;15.59;52.42;102039.13;4996040;28;49689;-67
2022/05/13 01:43:52;;;;;;;;;1.75;1.75;;;;;15.41;51.91;102014.03;4996243;28;49778;-67
2022/05/13 01:46:19;;;;;;;;;2.50;1.50;;;;;15.45;51.70;102017.66;4995762;28;49721;-67
2022/05/13 01:48:46;;;;;;;;;1.00;1.00;;;;;15.54;52.07;102032.81;4995689;28;49627;-67
2022/05/13 01:51:11;;;;;;;;;1.00;0.75;;;;;15.52;52.17;102038.09;4995983;28;49618;-67
2022/05/13 01:53:37;;;;;;;;;1.75;1.75;;;;;15.50;52.33;102025.69;4995893;28;49810;-68
2022/05/13 01:56:03;;;;;;;;;0.00;0.00;;;;;15.46;52.02;102023.00;4995681;28;50925;-67
2022/05/13 01:58:29;;;;;;;;;4.25;3.00;;;;;15.40;51.97;102016.66;4995856;28;49684;-67
2022/05/13 02:00:57;;;;;;;;;1.25;1.25;;;;;15.43;51.70;102022.91;4995561;28;49851;-68
2022/05/13 02:06:08;;;;;;;;;1.00;1.00;;;;;15.39;52.47;102030.75;4995698;28;49574;-67
2022/05/13 02:08:34;;;;;;;;;2.00;2.00;;;;;15.35;52.31;102031.56;4995627;28;49978;-67
2022/05/13 02:11:00;;;;;;;;;0.25;0.25;;;;;15.33;52.59;102028.88;4995739;28;49914;-68
2022/05/13 02:13:27;;;;;;;;;1.75;1.75;;;;;15.31;52.66;102027.06;4995704;28;49728;-68
2022/05/13 02:15:52;;;;;;;;;1.50;1.00;;;;;15.28;52.90;102035.81;4995434;28;50381;-68
2022/05/13 02:18:19;;;;;;;;;2.00;2.00;;;;;15.27;52.85;102036.69;4995178;28;54971;-71
2022/05/13 02:20:44;;;;;;;;;2.00;2.00;;;;;15.26;53.04;102031.38;4995394;28;49740;-68
2022/05/13 02:23:10;;;;;;;;;3.75;2.00;;;;;15.15;53.05;102018.81;4995596;28;50069;-68
2022/05/13 02:25:35;;;;;;;;;1.75;1.75;;;;;15.25;53.19;102035.78;4995276;28;51428;-67
2022/05/13 02:28:02;;;;;;;;;1.00;1.00;;;;;15.23;53.40;102034.81;4995494;28;49772;-68
2022/05/13 02:30:28;;;;;;;;;2.75;2.75;;;;;15.25;53.41;102032.19;4995526;28;49699;-68
2022/05/13 02:32:55;;;;;;;;;2.75;1.25;;;;;15.23;53.58;102023.34;4995450;28;49702;-68
2022/05/13 02:35:20;;;;;;;;;2.00;2.00;;;;;15.29;53.65;102034.06;4994875;28;49879;-68
2022/05/13 02:37:46;;;;;;;;;2.50;1.00;;;;;15.31;53.10;102037.63;4995300;28;49623;-68
2022/05/13 02:40:12;;;;;;;;;1.00;1.00;;;;;15.22;53.63;102021.56;4995275;28;49587;-69
2022/05/13 02:42:38;;;;;;;;;5.25;1.50;;;;;15.31;53.31;102033.25;4995030;28;49915;-69
2022/05/13 02:45:05;;;;;;;;;1.75;1.75;;;;;15.17;53.37;102005.59;4995078;28;50918;-69
2022/05/13 02:47:30;;;;;;;;;2.00;2.00;;;;;15.22;53.54;102032.16;4995040;28;49886;-69
2022/05/13 02:52:40;;;;;;;;;1.25;1.25;;;;;15.19;53.46;102025.03;4995007;28;49802;-69
2022/05/13 02:55:06;;;;;;;;;1.75;1.75;;;;;15.13;53.42;102024.91;4994840;28;49702;-69
2022/05/13 02:57:32;;;;;;;;;1.50;1.50;;;;;15.12;53.82;102024.00;4994893;28;49887;-69
2022/05/13 02:59:59;;;;;;;;;1.50;1.50;;;;;15.09;53.87;102026.59;4994615;28;49899;-69
2022/05/13 03:02:25;;;;;;;;;2.50;2.00;;;;;14.88;53.48;101991.75;4995068;28;49852;-69
2022/05/13 03:04:50;;;;;;;;;3.00;1.25;;;;;15.03;53.34;102023.78;4994551;28;50698;-69
2022/05/13 03:07:16;;;;;;;;;2.00;1.25;;;;;15.02;53.83;102024.66;4994738;28;49799;-68
2022/05/13 03:09:41;;;;;;;;;1.50;1.50;;;;;14.88;53.52;102012.88;4994911;28;49642;-69
2022/05/13 03:12:07;;;;;;;;;1.50;1.50;;;;;14.97;53.61;102036.00;4994977;28;49748;-68
2022/05/13 03:14:32;;;;;;;;;3.25;2.25;;;;;14.72;54.13;101998.41;4994393;28;49830;-68
2022/05/13 03:16:57;;;;;;;;;1.75;1.75;;;;;14.86;53.69;102028.72;4994682;28;49982;-69
2022/05/13 03:19:23;;;;;;;;;3.00;2.00;;;;;14.77;53.62;102020.56;4994615;28;49737;-69
2022/05/13 03:21:48;;;;;;;;;1.00;1.00;;;;;14.84;53.87;102030.41;4994659;28;49854;-69
2022/05/13 03:24:13;;;;;;;;;5.25;3.50;;;;;14.80;54.22;102032.97;4994366;28;49729;-68
2022/05/13 03:26:39;;;;;;;;;3.50;2.25;;;;;14.69;54.22;102016.84;4994507;28;49886;-68
2022/05/13 03:29:04;;;;;;;;;2.75;2.75;;;;;14.78;54.35;102034.69;4994587;28;49802;-68
2022/05/13 03:31:32;;;;;;;;;3.50;2.00;;;;;14.75;54.50;102031.94;4994712;28;49625;-68
2022/05/13 03:33:57;;;;;;;;;4.50;3.75;;;;;14.52;55.01;101994.41;4993976;28;51478;-68
2022/05/13 03:36:22;;;;;;;;;7.50;3.75;;;;;14.69;54.78;102030.06;4994218;28;49744;-68
2022/05/13 03:38:48;;;;;;;;;5.00;5.00;;;;;14.65;54.52;102035.22;4994141;28;49651;-68
2022/05/13 03:41:13;;;;;;;;;6.25;4.00;;;;;14.66;55.24;102029.06;4994366;28;49620;-68
2022/05/13 03:43:39;;;;;;;;;4.75;4.75;;;;;14.64;54.83;102031.69;4994022;28;49818;-68
2022/05/13 03:46:04;;;;;;;;;4.50;3.00;;;;;14.62;54.90;102035.16;4994218;28;50173;-68
2022/05/13 03:48:30;;;;;;;;;6.25;5.00;;;;;14.51;55.35;102016.41;4994081;28;49822;-68
2022/05/13 03:50:55;;;;;;;;;6.75;5.50;;;;;14.52;55.14;102029.66;4993985;28;49689;-68
2022/05/13 03:53:20;;;;;;;;;6.75;6.00;;;;;14.51;55.05;102024.31;4993529;28;52997;-68
2022/05/13 03:55:46;;;;;;;;;6.50;5.50;;;;;14.43;55.03;102026.75;4993327;28;49836;-68
2022/05/13 03:58:12;;;;;;;;;3.00;3.00;;;;;14.52;55.38;102045.50;4994122;28;49975;-68
2022/05/13 04:00:37;;;;;;;;;5.00;5.00;;;;;14.50;55.32;102039.28;4993968;28;49785;-68
2022/05/13 04:03:03;;;;;;;;;3.75;3.75;;;;;14.49;55.23;102047.19;4993885;28;49757;-69
2022/05/13 04:10:56;;;;;;;;;6.00;4.25;;;;;14.42;55.11;102040.81;4994100;28;49491;-68
2022/05/13 04:16:06;;;;;;;;;3.00;2.25;;;;;14.38;54.96;102038.03;4993633;28;49881;-68
2022/05/13 04:18:40;;;;;;;;;3.00;3.00;;;;;14.38;55.31;102043.31;4993471;28;49896;-68
2022/05/13 04:21:16;;;;;;;;;5.50;5.50;;;;;14.19;55.13;102016.47;4993841;28;49817;-68
2022/05/13 04:23:44;;;;;;;;;4.75;3.75;;;;;14.35;55.42;102052.06;4993547;28;51340;-68
2022/05/13 04:26:13;;;;;;;;;6.25;5.00;;;;;14.33;54.89;102049.38;4993291;28;49807;-68
2022/05/13 04:28:41;;;;;;;;;5.00;4.00;;;;;14.26;55.00;102034.22;4993540;28;50442;-68
2022/05/13 04:31:07;;;;;;;;;4.00;4.00;;;;;14.34;55.67;102052.91;4993733;28;49680;-68
2022/05/13 04:33:32;;;;;;;;;3.75;3.75;;;;;14.33;55.31;102057.31;4993192;28;50402;-68
2022/05/13 04:35:58;;;;;;;;;3.25;3.00;;;;;14.32;54.88;102054.63;4993548;28;49806;-68
2022/05/13 04:38:23;;;;;;;;;3.75;3.75;;;;;13.95;55.15;102006.13;4993483;28;49724;-68
2022/05/13 04:40:48;;;;;;;;;5.25;4.25;;;;;14.25;55.45;102050.03;4993643;28;49792;-68
2022/05/13 04:43:13;;;;;;;;;6.50;5.00;;;;;14.35;55.07;102064.38;4993223;28;50422;-68
2022/05/13 04:45:40;;;;;;;;;6.00;5.00;;;;;14.31;55.47;102055.50;4993435;28;49741;-68
2022/05/13 04:48:17;;;;;;;;;5.00;5.00;;;;;14.35;55.64;102062.63;4993431;28;49895;-68
2022/05/13 04:50:50;;;;;;;;;4.75;4.50;;;;;14.31;54.99;102050.22;4993380;28;49959;-68
2022/05/13 04:53:20;;;;;;;;;4.25;4.00;;;;;14.36;55.05;102066.16;4992888;28;49850;-68
2022/05/13 04:55:45;;;;;;;;;5.50;5.00;;;;;14.20;55.14;102044.66;4991602;28;49635;-68
2022/05/13 04:58:11;;;;;;;;;2.00;2.00;;;;;14.23;55.48;102057.03;4993393;28;49670;-68
2022/05/13 05:00:36;;;;;;;;;2.25;1.75;;;;;14.30;55.11;102077.47;4993226;28;50010;-67
2022/05/13 05:03:02;;;;;;;;;4.00;3.00;;;;;14.31;55.08;102079.28;4993159;28;50467;-68
2022/05/13 05:05:27;;;;;;;;;4.75;4.00;;;;;14.31;55.16;102080.16;4993152;28;49678;-67
2022/05/13 05:07:54;;;;;;;;;2.50;2.50;;;;;14.28;55.73;102071.25;4996010;28;50080;-67
2022/05/13 05:10:21;;;;;;;;;2.50;2.00;;;;;14.13;55.27;102047.09;4996923;28;49748;-67
2022/05/13 05:12:47;;;;;;;;;2.75;2.75;;;;;14.36;55.76;102087.28;4996426;28;50458;-67
2022/05/13 05:15:13;;;;;;;;;5.00;5.00;;;;;14.39;55.94;102085.66;4996511;28;49792;-68
2022/05/13 05:17:39;;;;;;;;;4.00;3.50;;;;;14.42;55.58;102091.00;4996318;28;49803;-68
2022/05/13 05:20:05;;;;;;;;;4.50;3.25;;;;;14.32;55.69;102073.13;4996249;28;50060;-68
2022/05/13 05:22:30;;;;;;;;;4.00;3.00;;;;;14.45;55.77;102082.28;4996345;28;49924;-68
2022/05/13 05:24:56;;;;;;;;;4.00;3.50;;;;;14.46;55.95;102095.53;4996284;28;49780;-68
2022/05/13 05:27:21;;;;;;;;;3.00;1.75;;;;;14.48;55.80;102098.25;4996484;28;49642;-68
2022/05/13 05:29:46;;;;;;;;;2.00;2.00;;;;;14.44;56.10;102085.75;4996590;28;49699;-68
2022/05/13 05:32:12;;;;;;;;;4.50;3.25;;;;;14.54;56.12;102101.03;4996227;28;50753;-68
2022/05/13 05:34:38;;;;;;;;;2.25;2.00;;;;;14.56;56.15;102104.59;4996054;28;49764;-68
2022/05/13 05:37:03;;;;;;;;;3.00;3.00;;;;;14.60;56.13;102099.44;4996324;28;50361;-69
2022/05/13 05:39:29;;;;;;;;;4.50;3.25;;;;;14.31;56.69;102051.09;4996112;28;49931;-78
2022/05/13 05:41:54;;;;;;;;;2.00;1.25;;;;;14.66;56.62;102100.44;4995945;28;50434;-69
2022/05/13 05:44:19;;;;;;;;;4.25;2.50;;;;;14.52;56.25;102084.25;4996322;28;49885;-69
2022/05/13 05:46:45;;;;;;;;;5.00;2.75;;;;;14.71;56.76;102106.75;4995303;28;49799;-68
2022/05/13 05:49:10;;;;;;;;;3.50;3.00;;;;;14.74;56.91;102117.38;4994770;28;49804;-66
2022/05/13 05:51:36;;;;;;;;;4.25;3.00;;;;;14.40;57.05;102057.47;4993769;28;50565;-65
2022/05/13 05:59:29;;;;;;;;;2.25;2.25;;;;;14.79;57.17;102124.59;4994390;28;50111;-66
2022/05/13 06:01:55;;;;;;;;;1.75;1.75;;;;;14.63;57.08;102092.44;4994733;28;50366;-66
2022/05/13 06:04:21;;;;;;;;;5.25;4.00;;;;;14.89;57.49;102134.53;4995728;28;49748;-67
2022/05/13 06:06:46;;;;;;;;;3.00;3.00;;;;;14.95;57.19;102127.59;4995580;28;49606;-68
2022/05/13 06:09:12;;;;;;;;;3.75;3.75;;;;;14.96;57.36;102130.31;4996065;28;49697;-67
2022/05/13 06:11:37;;;;;;;;;3.00;3.00;;;;;14.92;57.54;102116.97;4995769;28;50315;-72
2022/05/13 06:14:03;;;;;;;;;3.50;3.50;;;;;15.04;57.25;102133.13;4995774;28;49713;-68
2022/05/13 06:16:30;;;;;;;;;2.00;2.00;;;;;14.93;57.14;102113.44;4995770;28;49543;-67
2022/05/13 06:19:00;;;;;;;;;3.25;3.00;;;;;15.06;57.08;102137.63;4995104;28;49832;-69
2022/05/13 06:21:26;;;;;;;;;2.00;2.00;;;;;15.12;57.39;102143.03;4995331;28;50454;-67
2022/05/13 06:23:51;;;;;;;;;4.75;4.00;;;;;15.17;57.28;102140.50;4995573;28;49778;-67
2022/05/13 06:26:16;;;;;;;;;4.75;4.25;;;;;15.16;57.72;102141.38;4995887;28;49617;-67
2022/05/13 06:28:42;;;;;;;;;6.00;4.75;;;;;15.19;57.76;102138.78;4995488;28;49946;-67
2022/05/13 06:31:07;;;;;;;;;4.25;3.00;;;;;15.21;57.39;102145.00;4995168;28;53408;-65
2022/05/13 06:33:34;;;;;;;;;3.25;3.25;;;;;15.26;57.42;102143.38;4994912;28;49802;-66
2022/05/13 06:35:59;;;;;;;;;4.00;4.00;;;;;15.23;57.17;102143.28;4995032;28;49544;-67
2022/05/13 06:38:25;;;;;;;;;3.50;3.50;;;;;15.23;57.12;102139.75;4995340;28;49743;-66
2022/05/13 06:40:52;;;;;;;;;4.00;3.00;;;;;15.26;57.35;102134.53;4988678;28;50505;-66
2022/05/13 06:43:18;;;;;;;;;3.00;2.00;;;;;15.48;56.84;102158.00;4995126;28;49624;-66
2022/05/13 06:45:44;;;;;;;;;4.00;4.00;;;;;15.52;56.53;102156.28;4994274;28;49820;-66
2022/05/13 06:48:10;;;;;;;;;3.25;2.50;;;;;15.56;56.56;102159.06;4995311;28;49775;-67
2022/05/13 06:50:37;;;;;;;;;3.00;3.00;;;;;15.56;56.45;102147.59;4994133;28;49772;-66
2022/05/13 06:53:02;;;;;;;;;7.25;5.00;;;;;15.54;56.00;102143.97;4994678;28;49754;-66
2022/05/13 06:55:28;;;;;;;;;4.00;4.00;;;;;15.72;55.98;102165.59;4995048;28;50024;-67
2022/05/13 06:57:53;;;;;;;;;4.75;3.50;;;;;15.71;55.60;102169.13;4994966;28;49511;-66
2022/05/13 07:00:19;;;;;;;;;1.00;1.00;;;;;15.70;55.84;102156.75;4994547;28;50367;-66
2022/05/13 07:02:44;;;;;;;;;2.75;2.00;;;;;15.82;55.79;102169.34;4994727;28;49764;-67
2022/05/13 07:05:12;;;;;;;;;3.25;3.00;;;;;15.88;55.33;102165.09;4994885;28;49805;-67
2022/05/13 07:07:38;;;;;;;;;3.25;3.25;;;;;15.94;55.04;102166.97;4994756;28;49864;-67
2022/05/13 07:10:05;;;;;;;;;2.00;2.00;;;;;15.95;55.53;102161.72;4994394;28;50423;-67
2022/05/13 07:12:31;;;;;;;;;1.75;1.50;;;;;15.82;54.56;102151.69;4994701;28;49726;-67
2022/05/13 07:14:56;;;;;;;;;3.25;3.25;;;;;15.99;54.37;102168.84;4994417;28;49761;-66
2022/05/13 07:17:22;;;;;;;;;3.25;2.25;;;;;16.00;53.60;102167.97;4977330;28;50039;-66
2022/05/13 07:19:48;;;;;;;;;2.00;2.00;;;;;16.12;53.80;102170.00;4994465;28;50458;-66
2022/05/13 07:22:13;;;;;;;;;3.75;2.50;;;;;16.15;53.51;102171.81;4994387;28;49875;-67
2022/05/13 07:24:38;;;;;;;;;4.00;3.00;;;;;16.23;53.87;102176.41;4994564;28;49587;-67
2022/05/13 07:27:05;;;;;;;;;2.75;2.75;;;;;16.17;53.59;102155.09;4994747;28;49788;-66
2022/05/13 07:29:30;;;;;;;;;1.25;1.25;;;;;16.26;52.95;102159.69;4992696;28;50587;-65
2022/05/13 07:31:56;;;;;;;;;2.75;2.75;;;;;16.37;53.41;102173.13;4993548;28;49849;-66
2022/05/13 07:34:22;;;;;;;;;1.00;1.00;;;;;16.30;53.47;102167.69;4993898;28;50108;-66
2022/05/13 07:36:48;;;;;;;;;3.75;3.00;;;;;16.19;53.04;102139.22;4993782;28;49789;-66
2022/05/13 07:41:58;;;;;;;;;4.50;2.25;;;;;16.50;52.91;102183.09;4993672;28;49804;-67
2022/05/13 07:44:24;;;;;;;;;2.75;2.00;;;;;16.40;52.89;102168.78;4994091;28;49943;-66
2022/05/13 07:46:51;;;;;;;;;3.50;1.50;;;;;16.50;52.80;102189.31;4993958;28;49704;-66
2022/05/13 07:49:16;;;;;;;;;5.00;1.75;;;;;16.52;53.00;102195.53;4984944;28;51627;-66
2022/05/13 07:51:42;;;;;;;;;3.00;3.00;;;;;16.17;53.01;102127.69;4993858;28;50604;-65
2022/05/13 07:54:07;;;;;;;;;4.25;3.00;;;;;15.95;53.13;102079.59;4993608;28;49828;-66
2022/05/13 07:56:33;;;;;;;;;2.00;2.00;;;;;16.18;53.48;102109.19;4993428;28;50040;-66
2022/05/13 07:59:02;;;;;;;;;4.50;3.00;;;;;16.38;53.09;102140.47;4992383;28;50251;-66
2022/05/13 08:01:27;;;;;;;;;4.50;3.00;;;;;16.45;53.17;102137.06;4993477;28;49805;-66
2022/05/13 08:03:52;;;;;;;;;4.25;2.25;;;;;16.75;53.09;102176.53;4993313;28;49642;-65
2022/05/13 08:06:18;;;;;;;;;2.75;2.75;;;;;16.78;53.16;102168.63;4992077;28;49703;-65
2022/05/13 08:08:46;;;;;;;;;4.00;3.00;;;;;16.92;52.72;102192.75;4993753;28;49746;-65
2022/05/13 08:11:14;;;;;;;;;2.75;2.75;;;;;17.00;52.85;102189.38;4993226;28;49701;-66
2022/05/13 08:13:40;;;;;;;;;3.25;2.75;;;;;16.94;52.72;102159.19;4992621;28;49755;-65
2022/05/13 08:16:15;;;;;;;;;3.00;3.00;;;;;17.23;52.37;102180.91;4994022;28;49686;-66
2022/05/13 08:18:41;;;;;;;;;1.25;1.25;;;;;17.11;51.12;102121.47;4993403;28;49719;-65
2022/05/13 08:21:07;;;;;;;;;3.00;3.00;;;;;17.41;51.27;102149.31;4986856;28;49825;-66
2022/05/13 08:23:32;;;;;;;;;4.00;2.50;;;;;17.45;51.11;102146.72;4993349;28;49839;-65
2022/05/13 08:25:58;;;;;;;;;1.00;1.00;;;;;17.55;49.42;102176.94;4993890;28;50038;-66
2022/05/13 08:28:24;;;;;;;;;1.75;1.75;;;;;17.57;49.26;102184.97;4991984;28;50227;-66
2022/05/13 08:30:50;;;;;;;;;2.25;0.00;;;;;17.32;48.78;102166.00;4993766;28;49876;-66
2022/05/13 08:33:17;;;;;;;;;3.50;2.50;;;;;17.59;48.29;102169.94;4993535;28;49829;-65
2022/05/13 08:35:48;;;;;;;;;2.25;2.25;;;;;17.40;48.53;102129.84;4993298;28;49762;-66
2022/05/13 08:38:15;;;;;;;;;1.00;1.00;;;;;17.67;48.51;102168.31;4993250;28;49950;-66
2022/05/13 08:40:50;;;;;;;;;3.00;2.00;;;;;17.67;48.51;102177.16;4992947;28;49662;-66
2022/05/13 08:43:27;;;;;;;;;3.75;3.00;;;;;17.52;47.78;102139.75;4993235;28;49873;-66
2022/05/13 08:45:59;;;;;;;;;2.00;1.00;;;;;17.47;45.54;102141.47;4993538;28;49536;-66
2022/05/13 08:48:43;;;;;;;;;1.00;1.00;;;;;17.25;45.67;102134.91;4993159;28;49864;-66
2022/05/13 08:51:14;;;;;;;;;0.25;0.25;;;;;17.47;42.00;102157.41;4993338;28;49837;-66
2022/05/13 08:53:53;;;;;;;;;2.00;1.50;;;;;17.61;42.53;102181.47;4993159;28;49504;-66
2022/05/13 08:56:25;;;;;;;;;2.00;2.00;;;;;17.54;42.37;102153.94;4997952;28;49792;-66
2022/05/13 08:59:10;;;;;;;;;0.75;0.75;;;;;17.60;42.32;102169.97;4993437;28;49789;-66
2022/05/13 09:01:42;;;;;;;;;2.00;2.00;;;;;17.73;42.73;102179.91;4993747;28;49775;-67
2022/05/13 09:04:16;;;;;;;;;2.50;1.75;;;;;17.41;42.53;102122.78;4993009;28;49914;-67
2022/05/13 09:06:56;;;;;;;;;0.50;0.50;;;;;17.79;40.04;102172.91;4974094;28;50079;-66
2022/05/13 09:09:22;;;;;;;;;0.00;0.00;;;;;17.51;39.94;102135.31;4990539;28;50445;-71
2022/05/13 09:11:55;;;;;;;;;0.00;0.00;;;;;17.78;40.68;102169.38;4975982;28;49661;-71
2022/05/13 09:14:29;;;;;;;;;1.00;1.00;;;;;17.81;41.48;102174.72;4990710;28;50208;-68
2022/05/13 09:17:16;;;;;;;;;2.25;0.75;;;;;17.81;41.29;102169.41;4991729;28;49736;-69
2022/05/13 09:20:17;;;;;;;;;2.25;1.50;;;;;17.87;42.68;102185.44;4990661;28;50844;-71
2022/05/13 09:22:52;;;;;;;;;2.00;2.00;;;;;17.93;42.67;102168.66;4967215;28;49865;-69
2022/05/13 09:25:24;;;;;;;;;2.00;1.00;;;;;18.00;43.08;102179.41;4992672;28;49910;-71
2022/05/13 09:27:56;;;;;;;;;1.50;1.50;;;;;17.96;42.92;102169.63;4992803;28;49801;-67
2022/05/13 09:30:28;;;;;;;;;0.00;0.00;;;;;17.94;42.97;102171.34;4992196;28;49705;-70
2022/05/13 09:32:53;;;;;;;;;2.00;2.00;;;;;18.06;43.45;102167.97;4992405;28;49677;-72
2022/05/13 09:35:34;;;;;;;;;3.00;1.00;;;;;18.20;43.38;102163.69;4992264;28;49874;-70
2022/05/13 09:38:12;;;;;;;;;3.00;2.00;;;;;18.38;43.04;102170.97;4992721;28;49854;-70
2022/05/13 09:40:38;;;;;;;;;1.75;1.00;;;;;18.37;42.81;102160.34;4991997;28;52810;-70
2022/05/13 09:43:04;;;;;;;;;2.00;1.00;;;;;18.50;42.98;102170.22;4993689;28;49853;-69
2022/05/13 09:45:36;;;;;;;;;1.00;1.00;;;;;18.37;42.02;102153.25;4991864;28;50760;-69
2022/05/13 09:48:04;;;;;;;;;2.00;2.00;;;;;18.36;42.15;102164.78;4992031;28;49728;-69
2022/05/13 09:50:33;;;;;;;;;2.50;2.00;;;;;18.32;42.31;102152.28;4991429;28;50753;-74
2022/05/13 09:53:09;;;;;;;;;1.75;1.75;;;;;18.41;42.15;102156.81;4992163;28;49840;-69
2022/05/13 09:55:39;;;;;;;;;0.00;0.00;;;;;18.51;42.07;102172.00;4995526;28;49761;-69
2022/05/13 09:58:16;;;;;;;;;2.50;2.00;;;;;18.51;40.65;102172.00;4996122;28;49735;-68
2022/05/13 10:00:45;;;;;;;;;1.00;1.00;;;;;18.58;41.09;102165.88;4991748;28;50600;-68
2022/05/13 10:03:18;;;;;;;;;1.00;1.00;;;;;18.69;41.32;102161.59;4995554;28;49774;-68
2022/05/13 10:05:51;;;;;;;;;1.00;1.00;;;;;18.90;41.16;102158.22;4994336;28;49812;-69
2022/05/13 10:08:20;;;;;;;;;0.00;0.00;;;;;18.94;41.00;102133.44;4993740;28;49868;-67
2022/05/13 10:14:00;;;;;;;;;1.00;1.00;;;;;19.09;40.91;102148.63;4995356;28;49895;-69
2022/05/13 10:16:40;;;;;;;;;1.00;1.00;;;;;19.20;40.89;102151.34;4997502;28;49741;-69
2022/05/13 10:19:11;;;;;;;;;1.00;0.25;;;;;19.16;40.33;102150.47;4995645;28;49725;-69
2022/05/13 10:21:40;;;;;;;;;1.00;1.00;;;;;19.17;40.42;102145.13;4994326;28;50763;-69
2022/05/13 10:24:21;;;;;;;;;0.75;0.75;;;;;19.20;40.66;102143.38;4995627;28;49767;-68
2022/05/13 10:26:49;;;;;;;;;1.50;1.00;;;;;19.13;40.30;102143.34;4994516;28;50012;-69
2022/05/13 10:29:43;;;;;;;;;1.00;1.00;;;;;19.09;40.50;102127.31;4995401;28;49913;-71
2022/05/13 10:32:37;;;;;;;;;1.75;1.00;;;;;19.21;40.72;102145.19;4998141;28;49968;-70
2022/05/13 10:35:10;;;;;;;;;0.75;0.75;;;;;19.23;40.48;102143.41;4994661;28;49871;-69
2022/05/13 10:37:48;;;;;;;;;1.50;1.00;;;;;19.14;40.25;102137.16;4988846;28;49840;-76
2022/05/13 10:40:17;;;;;;;;;11.75;10.25;;;;;19.13;41.33;102130.03;4996503;28;49800;-72
2022/05/13 10:43:12;;;;;;;;;31.50;29.00;;;;;19.25;41.45;102126.56;4995515;28;49850;-70
2022/05/13 10:45:41;;;;;;;;;25.25;23.50;;;;;19.30;41.08;102122.19;4989832;28;49645;-72
2022/05/13 10:48:28;;;;;;;;;16.75;16.75;;;;;19.16;41.30;102119.41;4995059;28;49868;-71
2022/05/13 10:51:31;;;;;;;;;4.00;3.25;;;;;19.06;40.71;102074.09;4992896;28;50007;-68
2022/05/13 10:54:13;;;;;;;;;1.50;1.50;;;;;19.38;40.85;102115.09;4973377;28;50764;-68
2022/05/13 10:56:53;;;;;;;;;2.00;1.00;;;;;19.44;40.19;102114.25;4988954;28;49780;-70
2022/05/13 10:59:39;;;;;;;;;2.00;2.00;;;;;19.44;40.12;102108.94;4994956;28;49663;-70
2022/05/13 11:02:42;;;;;;;;;1.00;1.00;;;;;19.42;39.85;102116.91;4994957;28;49591;-69
2022/05/13 11:05:14;;;;;;;;;3.25;2.00;;;;;19.36;39.58;102111.53;4993811;28;50651;-70
2022/05/13 11:07:55;;;;;;;;;3.00;2.00;;;;;19.37;40.18;102102.66;4994128;28;49697;-72
2022/05/13 11:10:43;;;;;;;;;2.00;2.00;;;;;19.27;40.08;102078.66;4993270;28;49826;-69
2022/05/13 11:13:24;;;;;;;;;2.25;1.75;;;;;19.43;39.38;102110.72;4989856;28;49730;-69
2022/05/13 11:15:52;;;;;;;;;2.75;2.25;;;;;19.43;39.83;102110.72;4996533;28;49682;-70
2022/05/13 11:18:35;;;;;;;;;1.75;1.75;;;;;19.47;39.77;102105.38;4994471;28;49813;-69
2022/05/13 11:21:16;;;;;;;;;3.50;3.50;;;;;19.56;39.99;102108.13;4992528;28;50373;-70
2022/05/13 11:27:07;;;;;;;;;1.00;1.00;;;;;19.78;39.83;102110.00;4993485;28;50093;-68
2022/05/13 11:29:53;;;;;;;;;0.50;0.50;;;;;19.81;39.65;102096.72;4997998;28;49579;-70
2022/05/13 11:32:31;;;;;;;;;1.00;1.00;;;;;19.95;39.64;102107.41;4994115;28;49677;-70
2022/05/13 11:35:03;;;;;;;;;1.00;1.00;;;;;20.05;38.98;102098.56;4994523;28;49762;-67
2022/05/13 11:37:33;;;;;;;;;2.75;2.00;;;;;20.13;39.26;102099.47;4993398;28;50504;-70
2022/05/13 11:40:14;;;;;;;;;1.50;1.50;;;;;20.23;39.01;102103.06;4992000;28;49730;-69
2022/05/13 11:43:18;;;;;;;;;1.00;1.00;;;;;20.35;38.49;102102.19;4993919;28;49525;-66
2022/05/13 11:46:02;;;;;;;;;1.00;1.00;;;;;20.39;38.00;102107.53;4993631;28;49984;-67
2022/05/13 11:48:29;;;;;;;;;2.00;2.00;;;;;20.41;38.33;102108.44;4993990;28;49795;-69
2022/05/13 11:51:05;;;;;;;;;3.75;3.75;;;;;20.35;38.11;102100.41;4993594;28;49716;-67
2022/05/13 11:53:50;;;;;;;;;2.00;2.00;;;;;20.40;38.58;102092.44;4993722;28;49629;-71
2022/05/13 11:56:25;;;;;;;;;1.50;1.50;;;;;20.41;38.70;102086.22;4993684;28;49590;-67
2022/05/13 11:59:11;;;;;;;;;2.00;2.00;;;;;20.43;38.89;102096.00;4993814;28;50646;-71
2022/05/13 12:01:36;;;;;;;;;1.50;1.50;;;;;20.43;37.89;102095.13;4993563;28;49763;-71
2022/05/13 12:04:17;;;;;;;;;2.00;2.00;;;;;20.38;37.23;102086.22;4992028;28;50365;-68